sensor_id;sensor_type;location;lat;lon;timestamp;P1;durP1;ratioP1;P2;durP2;ratioP2
18399;SDS011;9326;49.468;11.008;2023-05-29T05:02:51;3.47;;;2.87;;
18399;SDS011;9326;49.468;11.008;2023-05-29T05:05:19;4.37;;;3.10;;
18399;SDS011;9326;49.468;11.008;2023-05-29T05:07:46;4.17;;;3.30;;
18399;SDS011;9326;49.468;11.008;2023-05-29T05:10:13;3.43;;;2.73;;
18399;SDS011;9326;49.468;11.008;2023-05-29T05:12:40;3.93;;;2.90;;
18399;SDS011;9326;49.468;11.008;2023-05-29T05:15:08;3.60;;;2.80;;
18399;SDS011;9326;49.468;11.008;2023-05-29T05:17:35;4.47;;;2.87;;
18399;SDS011;9326;49.468;11.008;2023-05-29T05:20:04;5.20;;;2.97;;
18399;SDS011;9326;49.468;11.008;2023-05-29T05:22:33;3.33;;;2.77;;
18399;SDS011;9326;49.468;11.008;2023-05-29T05:25:01;3.80;;;3.00;;
18399;SDS011;9326;49.468;11.008;2023-05-29T05:27:29;3.63;;;3.07;;
18399;SDS011;9326;49.468;11.008;2023-05-29T05:29:56;3.53;;;3.13;;
18399;SDS011;9326;49.468;11.008;2023-05-29T05:32:23;3.00;;;2.63;;
18399;SDS011;9326;49.468;11.008;2023-05-29T05:34:50;3.30;;;2.90;;
18399;SDS011;9326;49.468;11.008;2023-05-29T05:37:19;3.33;;;3.00;;
18399;SDS011;9326;49.468;11.008;2023-05-29T05:39:48;4.13;;;2.80;;
18399;SDS011;9326;49.468;11.008;2023-05-29T05:42:15;3.73;;;2.73;;
18399;SDS011;9326;49.468;11.008;2023-05-29T05:44:42;4.33;;;2.90;;
18399;SDS011;9326;49.468;11.008;2023-05-29T05:47:09;5.00;;;2.63;;
18399;SDS011;9326;49.468;11.008;2023-05-29T05:49:37;4.10;;;2.70;;
18399;SDS011;9326;49.468;11.008;2023-05-29T05:52:04;4.57;;;3.03;;
18399;SDS011;9326;49.468;11.008;2023-05-29T05:54:33;3.83;;;3.00;;
18399;SDS011;9326;49.468;11.008;2023-05-29T05:57:00;4.20;;;2.90;;
18399;SDS011;9326;49.468;11.008;2023-05-29T05:59:28;3.50;;;2.50;;
18399;SDS011;9326;49.468;11.008;2023-05-29T06:01:55;3.97;;;2.77;;
18399;SDS011;9326;49.468;11.008;2023-05-29T06:04:22;4.80;;;2.70;;
18399;SDS011;9326;49.468;11.008;2023-05-29T06:06:49;4.77;;;2.90;;
18399;SDS011;9326;49.468;11.008;2023-05-29T06:09:16;4.83;;;2.70;;
18399;SDS011;9326;49.468;11.008;2023-05-29T06:11:45;3.27;;;2.80;;
18399;SDS011;9326;49.468;11.008;2023-05-29T06:14:12;5.10;;;3.30;;
18399;SDS011;9326;49.468;11.008;2023-05-29T06:16:39;3.27;;;2.63;;
18399;SDS011;9326;49.468;11.008;2023-05-29T06:19:06;3.70;;;2.70;;
18399;SDS011;9326;49.468;11.008;2023-05-29T06:21:33;3.77;;;2.30;;
18399;SDS011;9326;49.468;11.008;2023-05-29T06:24:01;3.67;;;2.63;;
18399;SDS011;9326;49.468;11.008;2023-05-29T06:26:28;2.47;;;2.27;;
18399;SDS011;9326;49.468;11.008;2023-05-29T06:28:56;3.70;;;2.90;;
18399;SDS011;9326;49.468;11.008;2023-05-29T06:31:23;2.40;;;2.20;;
18399;SDS011;9326;49.468;11.008;2023-05-29T06:33:50;4.13;;;2.60;;
18399;SDS011;9326;49.468;11.008;2023-05-29T06:36:18;5.40;;;2.80;;
18399;SDS011;9326;49.468;11.008;2023-05-29T06:38:45;4.33;;;2.90;;
18399;SDS011;9326;49.468;11.008;2023-05-29T06:42:48;3.17;;;2.50;;
18399;SDS011;9326;49.468;11.008;2023-05-29T06:44:06;5.90;;;2.50;;
18399;SDS011;9326;49.468;11.008;2023-05-29T06:46:34;3.07;;;2.77;;
18399;SDS011;9326;49.468;11.008;2023-05-29T06:49:01;4.60;;;2.77;;
18399;SDS011;9326;49.468;11.008;2023-05-29T06:51:28;3.93;;;2.37;;
18399;SDS011;9326;49.468;11.008;2023-05-29T06:53:55;2.80;;;2.40;;
18399;SDS011;9326;49.468;11.008;2023-05-29T06:56:22;3.83;;;2.80;;
18399;SDS011;9326;49.468;11.008;2023-05-29T06:58:51;3.30;;;2.43;;
18399;SDS011;9326;49.468;11.008;2023-05-29T07:01:19;4.60;;;2.70;;
18399;SDS011;9326;49.468;11.008;2023-05-29T07:03:46;4.60;;;2.70;;
18399;SDS011;9326;49.468;11.008;2023-05-29T07:06:13;3.00;;;2.40;;
18399;SDS011;9326;49.468;11.008;2023-05-29T07:08:40;4.23;;;2.50;;
18399;SDS011;9326;49.468;11.008;2023-05-29T07:11:07;2.97;;;2.60;;
18399;SDS011;9326;49.468;11.008;2023-05-29T07:13:34;7.03;;;2.70;;
18399;SDS011;9326;49.468;11.008;2023-05-29T07:16:01;3.23;;;2.73;;
18399;SDS011;9326;49.468;11.008;2023-05-29T07:18:29;4.67;;;2.83;;
18399;SDS011;9326;49.468;11.008;2023-05-29T07:20:56;3.97;;;2.57;;
18399;SDS011;9326;49.468;11.008;2023-05-29T07:23:23;3.47;;;2.37;;
18399;SDS011;9326;49.468;11.008;2023-05-29T07:25:51;4.17;;;2.50;;
18399;SDS011;9326;49.468;11.008;2023-05-29T07:28:18;3.63;;;2.20;;
18399;SDS011;9326;49.468;11.008;2023-05-29T07:30:45;4.77;;;2.30;;
18399;SDS011;9326;49.468;11.008;2023-05-29T07:33:12;2.73;;;2.40;;
18399;SDS011;9326;49.468;11.008;2023-05-29T07:35:40;3.60;;;2.50;;
18399;SDS011;9326;49.468;11.008;2023-05-29T07:38:07;3.73;;;2.50;;
18399;SDS011;9326;49.468;11.008;2023-05-29T07:40:34;3.70;;;2.50;;
18399;SDS011;9326;49.468;11.008;2023-05-29T07:43:01;3.00;;;2.07;;
18399;SDS011;9326;49.468;11.008;2023-05-29T07:45:28;4.50;;;2.60;;
18399;SDS011;9326;49.468;11.008;2023-05-29T07:47:55;3.50;;;2.53;;
18399;SDS011;9326;49.468;11.008;2023-05-29T07:50:22;4.27;;;2.00;;
18399;SDS011;9326;49.468;11.008;2023-05-29T07:52:51;2.43;;;2.23;;
18399;SDS011;9326;49.468;11.008;2023-05-29T07:55:18;2.27;;;2.07;;
18399;SDS011;9326;49.468;11.008;2023-05-29T07:57:45;2.90;;;2.17;;
18399;SDS011;9326;49.468;11.008;2023-05-29T08:00:13;5.67;;;2.27;;
18399;SDS011;9326;49.468;11.008;2023-05-29T08:02:41;2.37;;;2.03;;
18399;SDS011;9326;49.468;11.008;2023-05-29T08:05:09;3.87;;;2.40;;
18399;SDS011;9326;49.468;11.008;2023-05-29T08:07:37;2.10;;;2.00;;
18399;SDS011;9326;49.468;11.008;2023-05-29T08:10:07;3.37;;;2.30;;
18399;SDS011;9326;49.468;11.008;2023-05-29T08:12:34;3.33;;;2.27;;
18399;SDS011;9326;49.468;11.008;2023-05-29T08:15:01;4.93;;;2.10;;
18399;SDS011;9326;49.468;11.008;2023-05-29T08:17:28;3.07;;;1.73;;
18399;SDS011;9326;49.468;11.008;2023-05-29T08:19:55;4.57;;;2.37;;
18399;SDS011;9326;49.468;11.008;2023-05-29T08:22:22;2.13;;;1.90;;
18399;SDS011;9326;49.468;11.008;2023-05-29T08:24:54;3.07;;;2.77;;
18399;SDS011;9326;49.468;11.008;2023-05-29T08:27:25;2.30;;;2.10;;
18399;SDS011;9326;49.468;11.008;2023-05-29T08:29:52;2.40;;;1.80;;
18399;SDS011;9326;49.468;11.008;2023-05-29T08:32:19;2.00;;;1.80;;
18399;SDS011;9326;49.468;11.008;2023-05-29T08:34:46;3.03;;;2.20;;
18399;SDS011;9326;49.468;11.008;2023-05-29T08:37:14;2.47;;;1.97;;
18399;SDS011;9326;49.468;11.008;2023-05-29T08:39:42;4.43;;;2.00;;
18399;SDS011;9326;49.468;11.008;2023-05-29T08:42:10;3.23;;;2.43;;
18399;SDS011;9326;49.468;11.008;2023-05-29T08:44:41;3.03;;;1.90;;
18399;SDS011;9326;49.468;11.008;2023-05-29T08:47:10;2.47;;;2.00;;
18399;SDS011;9326;49.468;11.008;2023-05-29T08:49:42;2.80;;;2.10;;
18399;SDS011;9326;49.468;11.008;2023-05-29T08:52:10;2.97;;;2.10;;
18399;SDS011;9326;49.468;11.008;2023-05-29T08:54:38;2.70;;;2.10;;
18399;SDS011;9326;49.468;11.008;2023-05-29T08:57:06;2.23;;;2.03;;
18399;SDS011;9326;49.468;11.008;2023-05-29T08:59:33;2.30;;;2.10;;
18399;SDS011;9326;49.468;11.008;2023-05-29T09:02:03;3.57;;;2.33;;
18399;SDS011;9326;49.468;11.008;2023-05-29T09:04:30;2.30;;;2.10;;
18399;SDS011;9326;49.468;11.008;2023-05-29T09:06:59;3.37;;;2.00;;
18399;SDS011;9326;49.468;11.008;2023-05-29T09:09:27;2.60;;;2.40;;
18399;SDS011;9326;49.468;11.008;2023-05-29T09:11:56;2.97;;;2.03;;
18399;SDS011;9326;49.468;11.008;2023-05-29T09:14:34;2.63;;;2.40;;
18399;SDS011;9326;49.468;11.008;2023-05-29T09:17:03;2.37;;;2.10;;
18399;SDS011;9326;49.468;11.008;2023-05-29T09:19:31;3.40;;;2.10;;
18399;SDS011;9326;49.468;11.008;2023-05-29T09:22:01;4.07;;;2.50;;
18399;SDS011;9326;49.468;11.008;2023-05-29T09:24:29;2.40;;;2.20;;
18399;SDS011;9326;49.468;11.008;2023-05-29T09:26:56;2.10;;;1.90;;
18399;SDS011;9326;49.468;11.008;2023-05-29T09:29:25;3.20;;;1.93;;
18399;SDS011;9326;49.468;11.008;2023-05-29T09:31:53;2.83;;;2.30;;
18399;SDS011;9326;49.468;11.008;2023-05-29T09:34:24;2.80;;;2.30;;
18399;SDS011;9326;49.468;11.008;2023-05-29T09:36:52;3.00;;;2.20;;
18399;SDS011;9326;49.468;11.008;2023-05-29T09:39:21;2.77;;;2.20;;
18399;SDS011;9326;49.468;11.008;2023-05-29T09:41:48;2.27;;;2.07;;
18399;SDS011;9326;49.468;11.008;2023-05-29T09:44:16;2.63;;;2.27;;
18399;SDS011;9326;49.468;11.008;2023-05-29T09:46:43;8.93;;;2.70;;
18399;SDS011;9326;49.468;11.008;2023-05-29T09:49:11;3.43;;;2.40;;
18399;SDS011;9326;49.468;11.008;2023-05-29T09:51:39;2.67;;;2.20;;
18399;SDS011;9326;49.468;11.008;2023-05-29T09:54:14;2.83;;;2.27;;
18399;SDS011;9326;49.468;11.008;2023-05-29T09:56:42;2.63;;;2.43;;
18399;SDS011;9326;49.468;11.008;2023-05-29T09:59:10;3.33;;;2.10;;
18399;SDS011;9326;49.468;11.008;2023-05-29T10:01:38;4.47;;;2.37;;
18399;SDS011;9326;49.468;11.008;2023-05-29T10:04:06;3.30;;;2.50;;
18399;SDS011;9326;49.468;11.008;2023-05-29T10:06:34;2.43;;;2.23;;
18399;SDS011;9326;49.468;11.008;2023-05-29T10:09:03;4.00;;;2.20;;
18399;SDS011;9326;49.468;11.008;2023-05-29T10:11:33;5.03;;;2.37;;
18399;SDS011;9326;49.468;11.008;2023-05-29T10:14:00;3.20;;;2.43;;
18399;SDS011;9326;49.468;11.008;2023-05-29T10:16:29;2.20;;;2.00;;
18399;SDS011;9326;49.468;11.008;2023-05-29T10:19:00;3.07;;;2.17;;
18399;SDS011;9326;49.468;11.008;2023-05-29T10:21:31;4.60;;;1.87;;
18399;SDS011;9326;49.468;11.008;2023-05-29T10:23:59;2.20;;;2.00;;
18399;SDS011;9326;49.468;11.008;2023-05-29T10:26:28;2.67;;;2.13;;
18399;SDS011;9326;49.468;11.008;2023-05-29T10:28:58;3.43;;;2.30;;
18399;SDS011;9326;49.468;11.008;2023-05-29T10:31:28;2.97;;;2.37;;
18399;SDS011;9326;49.468;11.008;2023-05-29T10:34:01;3.20;;;2.27;;
18399;SDS011;9326;49.468;11.008;2023-05-29T10:36:30;4.20;;;2.20;;
18399;SDS011;9326;49.468;11.008;2023-05-29T10:39:02;2.27;;;1.93;;
18399;SDS011;9326;49.468;11.008;2023-05-29T10:41:41;2.30;;;2.10;;
18399;SDS011;9326;49.468;11.008;2023-05-29T10:47:05;2.40;;;2.00;;
18399;SDS011;9326;49.468;11.008;2023-05-29T10:49:33;1.90;;;1.80;;
18399;SDS011;9326;49.468;11.008;2023-05-29T10:52:00;2.80;;;1.80;;
18399;SDS011;9326;49.468;11.008;2023-05-29T10:54:30;2.80;;;1.87;;
18399;SDS011;9326;49.468;11.008;2023-05-29T10:57:07;2.70;;;1.97;;
18399;SDS011;9326;49.468;11.008;2023-05-29T10:59:35;3.47;;;2.93;;
18399;SDS011;9326;49.468;11.008;2023-05-29T11:02:03;3.97;;;2.83;;
18399;SDS011;9326;49.468;11.008;2023-05-29T11:04:31;4.07;;;2.33;;
18399;SDS011;9326;49.468;11.008;2023-05-29T11:06:59;3.13;;;2.53;;
18399;SDS011;9326;49.468;11.008;2023-05-29T11:09:29;2.93;;;1.70;;
18399;SDS011;9326;49.468;11.008;2023-05-29T11:12:14;2.53;;;1.97;;
18399;SDS011;9326;49.468;11.008;2023-05-29T11:14:53;2.53;;;2.20;;
18399;SDS011;9326;49.468;11.008;2023-05-29T11:17:34;2.50;;;2.10;;
18399;SDS011;9326;49.468;11.008;2023-05-29T11:20:17;3.03;;;2.00;;
18399;SDS011;9326;49.468;11.008;2023-05-29T11:22:53;2.37;;;2.00;;
18399;SDS011;9326;49.468;11.008;2023-05-29T11:25:23;2.07;;;1.87;;
18399;SDS011;9326;49.468;11.008;2023-05-29T11:27:51;1.97;;;1.80;;
18399;SDS011;9326;49.468;11.008;2023-05-29T11:30:18;2.10;;;1.90;;
18399;SDS011;9326;49.468;11.008;2023-05-29T11:32:45;2.97;;;2.03;;
18399;SDS011;9326;49.468;11.008;2023-05-29T11:35:13;2.63;;;1.90;;
18399;SDS011;9326;49.468;11.008;2023-05-29T11:37:41;2.87;;;2.27;;
18399;SDS011;9326;49.468;11.008;2023-05-29T11:40:09;3.03;;;2.37;;
18399;SDS011;9326;49.468;11.008;2023-05-29T11:42:37;3.50;;;3.07;;
18399;SDS011;9326;49.468;11.008;2023-05-29T11:45:11;3.17;;;2.10;;
18399;SDS011;9326;49.468;11.008;2023-05-29T11:47:50;5.27;;;1.80;;
18399;SDS011;9326;49.468;11.008;2023-05-29T11:50:18;3.07;;;2.00;;
18399;SDS011;9326;49.468;11.008;2023-05-29T11:52:46;2.27;;;2.00;;
18399;SDS011;9326;49.468;11.008;2023-05-29T11:55:13;3.93;;;2.20;;
18399;SDS011;9326;49.468;11.008;2023-05-29T11:57:40;2.27;;;1.90;;
18399;SDS011;9326;49.468;11.008;2023-05-29T12:00:07;2.63;;;1.87;;
18399;SDS011;9326;49.468;11.008;2023-05-29T12:02:36;2.57;;;1.80;;
18399;SDS011;9326;49.468;11.008;2023-05-29T12:05:04;2.50;;;1.80;;
18399;SDS011;9326;49.468;11.008;2023-05-29T12:07:32;2.87;;;1.97;;
18399;SDS011;9326;49.468;11.008;2023-05-29T12:10:08;2.00;;;1.80;;
18399;SDS011;9326;49.468;11.008;2023-05-29T12:12:35;2.50;;;2.10;;
18399;SDS011;9326;49.468;11.008;2023-05-29T12:15:04;3.40;;;1.63;;
18399;SDS011;9326;49.468;11.008;2023-05-29T12:17:31;2.30;;;1.70;;
18399;SDS011;9326;49.468;11.008;2023-05-29T12:20:00;2.33;;;1.83;;
18399;SDS011;9326;49.468;11.008;2023-05-29T12:22:34;2.63;;;2.10;;
18399;SDS011;9326;49.468;11.008;2023-05-29T12:25:05;1.90;;;1.70;;
18399;SDS011;9326;49.468;11.008;2023-05-29T12:27:33;2.07;;;1.87;;
18399;SDS011;9326;49.468;11.008;2023-05-29T12:30:06;3.27;;;1.97;;
18399;SDS011;9326;49.468;11.008;2023-05-29T12:32:35;1.93;;;1.60;;
18399;SDS011;9326;49.468;11.008;2023-05-29T12:35:10;2.80;;;1.83;;
18399;SDS011;9326;49.468;11.008;2023-05-29T12:37:41;3.00;;;1.97;;
18399;SDS011;9326;49.468;11.008;2023-05-29T12:40:09;3.27;;;2.17;;
18399;SDS011;9326;49.468;11.008;2023-05-29T12:42:37;2.13;;;1.93;;
18399;SDS011;9326;49.468;11.008;2023-05-29T12:45:04;1.73;;;1.63;;
18399;SDS011;9326;49.468;11.008;2023-05-29T12:47:33;2.00;;;1.77;;
18399;SDS011;9326;49.468;11.008;2023-05-29T12:50:03;2.40;;;1.90;;
18399;SDS011;9326;49.468;11.008;2023-05-29T12:52:33;3.77;;;1.93;;
18399;SDS011;9326;49.468;11.008;2023-05-29T12:55:00;3.50;;;1.90;;
18399;SDS011;9326;49.468;11.008;2023-05-29T12:57:27;2.77;;;2.03;;
18399;SDS011;9326;49.468;11.008;2023-05-29T12:59:54;4.53;;;1.90;;
18399;SDS011;9326;49.468;11.008;2023-05-29T13:02:21;3.43;;;1.90;;
18399;SDS011;9326;49.468;11.008;2023-05-29T13:04:49;2.77;;;1.90;;
18399;SDS011;9326;49.468;11.008;2023-05-29T13:07:16;2.87;;;1.80;;
18399;SDS011;9326;49.468;11.008;2023-05-29T13:09:44;2.80;;;2.00;;
18399;SDS011;9326;49.468;11.008;2023-05-29T13:12:12;1.87;;;1.77;;
18399;SDS011;9326;49.468;11.008;2023-05-29T13:14:39;1.90;;;1.80;;
18399;SDS011;9326;49.468;11.008;2023-05-29T13:17:06;2.10;;;1.90;;
18399;SDS011;9326;49.468;11.008;2023-05-29T13:19:33;2.33;;;1.73;;
18399;SDS011;9326;49.468;11.008;2023-05-29T13:22:00;2.27;;;2.07;;
18399;SDS011;9326;49.468;11.008;2023-05-29T13:24:27;2.17;;;1.97;;
18399;SDS011;9326;49.468;11.008;2023-05-29T13:26:55;2.30;;;2.07;;
18399;SDS011;9326;49.468;11.008;2023-05-29T13:29:22;2.20;;;1.80;;
18399;SDS011;9326;49.468;11.008;2023-05-29T13:31:50;2.27;;;2.07;;
18399;SDS011;9326;49.468;11.008;2023-05-29T13:34:17;2.53;;;2.00;;
18399;SDS011;9326;49.468;11.008;2023-05-29T13:36:44;2.77;;;1.93;;
18399;SDS011;9326;49.468;11.008;2023-05-29T13:39:11;2.40;;;2.03;;
18399;SDS011;9326;49.468;11.008;2023-05-29T13:41:38;2.20;;;2.00;;
18399;SDS011;9326;49.468;11.008;2023-05-29T13:44:06;2.30;;;2.10;;
18399;SDS011;9326;49.468;11.008;2023-05-29T13:46:33;2.37;;;2.03;;
18399;SDS011;9326;49.468;11.008;2023-05-29T13:49:00;2.80;;;2.17;;
18399;SDS011;9326;49.468;11.008;2023-05-29T13:51:27;2.70;;;1.93;;
18399;SDS011;9326;49.468;11.008;2023-05-29T13:53:54;1.83;;;1.70;;
18399;SDS011;9326;49.468;11.008;2023-05-29T13:56:21;2.13;;;1.90;;
18399;SDS011;9326;49.468;11.008;2023-05-29T13:58:51;2.60;;;2.20;;
18399;SDS011;9326;49.468;11.008;2023-05-29T14:01:20;2.80;;;1.93;;
18399;SDS011;9326;49.468;11.008;2023-05-29T14:03:49;3.30;;;2.47;;
18399;SDS011;9326;49.468;11.008;2023-05-29T14:06:16;2.50;;;2.30;;
18399;SDS011;9326;49.468;11.008;2023-05-29T14:08:43;3.20;;;2.10;;
18399;SDS011;9326;49.468;11.008;2023-05-29T14:11:10;2.63;;;2.00;;
18399;SDS011;9326;49.468;11.008;2023-05-29T14:13:37;2.77;;;2.20;;
18399;SDS011;9326;49.468;11.008;2023-05-29T14:16:04;2.20;;;2.00;;
18399;SDS011;9326;49.468;11.008;2023-05-29T14:18:32;2.67;;;2.40;;
18399;SDS011;9326;49.468;11.008;2023-05-29T14:20:59;1.93;;;1.83;;
18399;SDS011;9326;49.468;11.008;2023-05-29T14:23:26;2.10;;;2.00;;
18399;SDS011;9326;49.468;11.008;2023-05-29T14:25:54;2.50;;;2.30;;
18399;SDS011;9326;49.468;11.008;2023-05-29T14:28:21;1.97;;;1.87;;
18399;SDS011;9326;49.468;11.008;2023-05-29T14:30:48;2.70;;;2.00;;
18399;SDS011;9326;49.468;11.008;2023-05-29T14:33:15;2.40;;;2.20;;
18399;SDS011;9326;49.468;11.008;2023-05-29T14:35:43;2.57;;;2.00;;
18399;SDS011;9326;49.468;11.008;2023-05-29T14:38:10;2.40;;;2.00;;
18399;SDS011;9326;49.468;11.008;2023-05-29T14:40:37;2.23;;;2.07;;
18399;SDS011;9326;49.468;11.008;2023-05-29T14:43:04;2.33;;;2.10;;
18399;SDS011;9326;49.468;11.008;2023-05-29T14:45:31;3.07;;;2.10;;
18399;SDS011;9326;49.468;11.008;2023-05-29T14:47:58;3.40;;;2.03;;
18399;SDS011;9326;49.468;11.008;2023-05-29T14:50:26;2.67;;;1.80;;
18399;SDS011;9326;49.468;11.008;2023-05-29T14:52:55;3.70;;;2.50;;
18399;SDS011;9326;49.468;11.008;2023-05-29T14:55:22;3.57;;;2.40;;
18399;SDS011;9326;49.468;11.008;2023-05-29T14:57:49;2.57;;;2.10;;
18399;SDS011;9326;49.468;11.008;2023-05-29T15:00:16;2.93;;;2.17;;
18399;SDS011;9326;49.468;11.008;2023-05-29T15:02:43;2.27;;;2.10;;
18399;SDS011;9326;49.468;11.008;2023-05-29T15:05:10;2.10;;;1.90;;
18399;SDS011;9326;49.468;11.008;2023-05-29T15:07:37;3.43;;;2.20;;
18399;SDS011;9326;49.468;11.008;2023-05-29T15:10:06;2.30;;;2.10;;
18399;SDS011;9326;49.468;11.008;2023-05-29T15:12:33;2.90;;;2.17;;
18399;SDS011;9326;49.468;11.008;2023-05-29T15:15:01;3.77;;;2.30;;
18399;SDS011;9326;49.468;11.008;2023-05-29T15:17:28;3.90;;;2.53;;
18399;SDS011;9326;49.468;11.008;2023-05-29T15:19:55;2.60;;;1.90;;
18399;SDS011;9326;49.468;11.008;2023-05-29T15:22:22;2.30;;;2.10;;
18399;SDS011;9326;49.468;11.008;2023-05-29T15:24:49;2.73;;;1.97;;
18399;SDS011;9326;49.468;11.008;2023-05-29T15:27:17;3.10;;;2.80;;
18399;SDS011;9326;49.468;11.008;2023-05-29T15:29:44;2.67;;;2.47;;
18399;SDS011;9326;49.468;11.008;2023-05-29T15:32:11;2.53;;;2.33;;
18399;SDS011;9326;49.468;11.008;2023-05-29T15:34:39;3.93;;;2.10;;
18399;SDS011;9326;49.468;11.008;2023-05-29T15:37:06;2.83;;;2.43;;
18399;SDS011;9326;49.468;11.008;2023-05-29T15:39:33;3.47;;;2.40;;
18399;SDS011;9326;49.468;11.008;2023-05-29T15:42:02;3.47;;;2.50;;
18399;SDS011;9326;49.468;11.008;2023-05-29T15:44:32;3.53;;;2.30;;
18399;SDS011;9326;49.468;11.008;2023-05-29T15:47:01;3.20;;;2.40;;
18399;SDS011;9326;49.468;11.008;2023-05-29T15:49:28;2.33;;;2.13;;
18399;SDS011;9326;49.468;11.008;2023-05-29T15:51:55;2.37;;;1.97;;
18399;SDS011;9326;49.468;11.008;2023-05-29T15:54:22;3.83;;;2.63;;
18399;SDS011;9326;49.468;11.008;2023-05-29T15:56:49;2.70;;;2.10;;
18399;SDS011;9326;49.468;11.008;2023-05-29T15:59:16;4.27;;;2.23;;
18399;SDS011;9326;49.468;11.008;2023-05-29T16:01:44;3.87;;;2.27;;
18399;SDS011;9326;49.468;11.008;2023-05-29T16:04:12;3.10;;;2.50;;
18399;SDS011;9326;49.468;11.008;2023-05-29T16:06:39;3.07;;;2.50;;
18399;SDS011;9326;49.468;11.008;2023-05-29T16:09:06;2.80;;;1.80;;
18399;SDS011;9326;49.468;11.008;2023-05-29T16:11:33;4.00;;;2.63;;
18399;SDS011;9326;49.468;11.008;2023-05-29T16:14:00;2.33;;;2.13;;
18399;SDS011;9326;49.468;11.008;2023-05-29T16:16:27;2.33;;;2.13;;
18399;SDS011;9326;49.468;11.008;2023-05-29T16:18:59;3.00;;;2.40;;
18399;SDS011;9326;49.468;11.008;2023-05-29T16:21:26;3.17;;;2.37;;
18399;SDS011;9326;49.468;11.008;2023-05-29T16:23:53;4.43;;;2.50;;
18399;SDS011;9326;49.468;11.008;2023-05-29T16:26:22;2.40;;;2.10;;
18399;SDS011;9326;49.468;11.008;2023-05-29T16:28:50;3.80;;;2.13;;
18399;SDS011;9326;49.468;11.008;2023-05-29T16:31:17;5.20;;;2.33;;
18399;SDS011;9326;49.468;11.008;2023-05-29T16:33:45;2.60;;;2.33;;
18399;SDS011;9326;49.468;11.008;2023-05-29T16:36:13;2.30;;;2.03;;
18399;SDS011;9326;49.468;11.008;2023-05-29T16:38:40;3.00;;;2.30;;
18399;SDS011;9326;49.468;11.008;2023-05-29T16:41:07;4.87;;;2.40;;
18399;SDS011;9326;49.468;11.008;2023-05-29T16:43:34;2.57;;;2.20;;
18399;SDS011;9326;49.468;11.008;2023-05-29T16:46:01;3.13;;;2.20;;
18399;SDS011;9326;49.468;11.008;2023-05-29T16:48:29;2.70;;;2.50;;
18399;SDS011;9326;49.468;11.008;2023-05-29T16:50:56;2.73;;;2.10;;
18399;SDS011;9326;49.468;11.008;2023-05-29T16:53:25;3.47;;;2.07;;
18399;SDS011;9326;49.468;11.008;2023-05-29T16:55:52;4.17;;;2.00;;
18399;SDS011;9326;49.468;11.008;2023-05-29T16:58:19;2.87;;;1.90;;
18399;SDS011;9326;49.468;11.008;2023-05-29T17:00:46;2.60;;;2.13;;
18399;SDS011;9326;49.468;11.008;2023-05-29T17:03:13;3.50;;;2.07;;
18399;SDS011;9326;49.468;11.008;2023-05-29T17:05:41;5.10;;;2.27;;
18399;SDS011;9326;49.468;11.008;2023-05-29T17:08:10;2.50;;;1.93;;
18399;SDS011;9326;49.468;11.008;2023-05-29T17:10:38;4.53;;;2.30;;
18399;SDS011;9326;49.468;11.008;2023-05-29T17:13:06;2.40;;;2.13;;
18399;SDS011;9326;49.468;11.008;2023-05-29T17:15:33;2.70;;;1.90;;
18399;SDS011;9326;49.468;11.008;2023-05-29T17:18:01;5.57;;;2.00;;
18399;SDS011;9326;49.468;11.008;2023-05-29T17:20:28;3.37;;;2.07;;
18399;SDS011;9326;49.468;11.008;2023-05-29T17:22:55;2.80;;;2.20;;
18399;SDS011;9326;49.468;11.008;2023-05-29T17:25:22;3.93;;;2.27;;
18399;SDS011;9326;49.468;11.008;2023-05-29T17:27:51;3.20;;;2.90;;
18399;SDS011;9326;49.468;11.008;2023-05-29T17:30:19;3.27;;;2.53;;
18399;SDS011;9326;49.468;11.008;2023-05-29T17:32:46;3.13;;;2.10;;
18399;SDS011;9326;49.468;11.008;2023-05-29T17:35:14;5.20;;;2.20;;
18399;SDS011;9326;49.468;11.008;2023-05-29T17:37:42;3.00;;;2.27;;
18399;SDS011;9326;49.468;11.008;2023-05-29T17:40:10;2.87;;;2.07;;
18399;SDS011;9326;49.468;11.008;2023-05-29T17:42:38;3.40;;;2.40;;
18399;SDS011;9326;49.468;11.008;2023-05-29T17:45:07;3.07;;;2.40;;
18399;SDS011;9326;49.468;11.008;2023-05-29T17:47:34;2.73;;;2.27;;
18399;SDS011;9326;49.468;11.008;2023-05-29T17:50:01;2.97;;;2.20;;
18399;SDS011;9326;49.468;11.008;2023-05-29T17:52:28;2.40;;;2.20;;
18399;SDS011;9326;49.468;11.008;2023-05-29T17:54:55;3.70;;;2.27;;
18399;SDS011;9326;49.468;11.008;2023-05-29T17:57:22;4.37;;;2.67;;
18399;SDS011;9326;49.468;11.008;2023-05-29T17:59:49;3.73;;;2.30;;
18399;SDS011;9326;49.468;11.008;2023-05-29T18:02:18;2.70;;;2.13;;
18399;SDS011;9326;49.468;11.008;2023-05-29T18:04:45;5.40;;;2.70;;
18399;SDS011;9326;49.468;11.008;2023-05-29T18:07:13;4.43;;;2.30;;
18399;SDS011;9326;49.468;11.008;2023-05-29T18:09:42;3.13;;;2.40;;
18399;SDS011;9326;49.468;11.008;2023-05-29T18:12:09;3.30;;;2.30;;
18399;SDS011;9326;49.468;11.008;2023-05-29T18:14:37;3.10;;;2.30;;
18399;SDS011;9326;49.468;11.008;2023-05-29T18:17:04;2.90;;;2.40;;
18399;SDS011;9326;49.468;11.008;2023-05-29T18:19:33;2.73;;;2.10;;
18399;SDS011;9326;49.468;11.008;2023-05-29T18:22:00;2.63;;;2.30;;
18399;SDS011;9326;49.468;11.008;2023-05-29T18:24:28;2.77;;;2.50;;
18399;SDS011;9326;49.468;11.008;2023-05-29T18:26:55;4.10;;;2.20;;
18399;SDS011;9326;49.468;11.008;2023-05-29T18:29:22;3.67;;;2.30;;
18399;SDS011;9326;49.468;11.008;2023-05-29T18:31:49;5.87;;;2.40;;
18399;SDS011;9326;49.468;11.008;2023-05-29T18:34:16;2.50;;;2.17;;
18399;SDS011;9326;49.468;11.008;2023-05-29T18:36:44;3.33;;;2.60;;
18399;SDS011;9326;49.468;11.008;2023-05-29T18:39:11;2.97;;;2.40;;
18399;SDS011;9326;49.468;11.008;2023-05-29T18:41:39;3.50;;;2.10;;
18399;SDS011;9326;49.468;11.008;2023-05-29T18:44:08;3.47;;;2.40;;
18399;SDS011;9326;49.468;11.008;2023-05-29T18:46:35;3.00;;;2.10;;
18399;SDS011;9326;49.468;11.008;2023-05-29T18:49:02;2.37;;;2.17;;
18399;SDS011;9326;49.468;11.008;2023-05-29T18:51:29;2.67;;;2.10;;
18399;SDS011;9326;49.468;11.008;2023-05-29T18:53:58;3.33;;;2.43;;
18399;SDS011;9326;49.468;11.008;2023-05-29T18:56:27;2.40;;;2.00;;
18399;SDS011;9326;49.468;11.008;2023-05-29T18:58:54;4.83;;;2.40;;
18399;SDS011;9326;49.468;11.008;2023-05-29T19:01:22;4.17;;;2.00;;
18399;SDS011;9326;49.468;11.008;2023-05-29T19:03:49;4.43;;;2.50;;
18399;SDS011;9326;49.468;11.008;2023-05-29T19:06:16;4.13;;;2.37;;
18399;SDS011;9326;49.468;11.008;2023-05-29T19:08:43;3.83;;;2.20;;
18399;SDS011;9326;49.468;11.008;2023-05-29T19:11:12;3.03;;;2.50;;
18399;SDS011;9326;49.468;11.008;2023-05-29T19:13:40;4.57;;;2.33;;
18399;SDS011;9326;49.468;11.008;2023-05-29T19:16:10;4.00;;;1.97;;
18399;SDS011;9326;49.468;11.008;2023-05-29T19:18:38;2.93;;;2.53;;
18399;SDS011;9326;49.468;11.008;2023-05-29T19:21:05;2.43;;;2.00;;
18399;SDS011;9326;49.468;11.008;2023-05-29T19:23:32;2.60;;;2.33;;
18399;SDS011;9326;49.468;11.008;2023-05-29T19:25:59;2.60;;;2.40;;
18399;SDS011;9326;49.468;11.008;2023-05-29T19:28:28;3.23;;;2.50;;
18399;SDS011;9326;49.468;11.008;2023-05-29T19:30:55;3.13;;;2.37;;
18399;SDS011;9326;49.468;11.008;2023-05-29T19:33:22;4.93;;;2.40;;
18399;SDS011;9326;49.468;11.008;2023-05-29T19:35:49;2.60;;;2.40;;
18399;SDS011;9326;49.468;11.008;2023-05-29T19:38:16;4.90;;;2.10;;
18399;SDS011;9326;49.468;11.008;2023-05-29T19:40:43;3.50;;;2.30;;
18399;SDS011;9326;49.468;11.008;2023-05-29T19:43:11;3.47;;;2.47;;
18399;SDS011;9326;49.468;11.008;2023-05-29T19:45:40;5.93;;;2.43;;
18399;SDS011;9326;49.468;11.008;2023-05-29T19:48:07;2.63;;;2.30;;
18399;SDS011;9326;49.468;11.008;2023-05-29T19:50:34;2.90;;;2.70;;
18399;SDS011;9326;49.468;11.008;2023-05-29T19:53:02;5.33;;;2.60;;
18399;SDS011;9326;49.468;11.008;2023-05-29T19:55:29;3.47;;;2.50;;
18399;SDS011;9326;49.468;11.008;2023-05-29T19:57:56;4.77;;;2.37;;